Terminal Aerodrome Forecast
Issued by NWS Boise, ID

Home | Current Version | Previous Version | Text Only | Print | Product List | Glossary On
Versions: 1 2 3 4 5 6 7 8 9 10 11 12 13 14 15 16 17 18 19 20 21 22 23 24 25 26 27 28 29
000
FTUS45 KBOI 281738
TAFBOI
TAF
KBOI 281738Z 2818/0118 31008KT P6SM OVC015
     FM282100 30014G22KT P6SM OVC025
     FM282300 30014G24KT P6SM VCSH BKN050 OVC100
     FM010200 30007KT P6SM SCT200
     FM010900 14004KT P6SM SCT200=

USA.gov is the U.S. government's official web portal to all federal, state and local government web resources and services.